createdAt,value
2022-12-18T00:02:07.731Z,71.10
2022-12-18T00:04:55.404Z,42.38
2022-12-18T00:07:42.928Z,40.13
2022-12-18T00:10:30.826Z,55.20
2022-12-18T00:13:19.998Z,50.67
2022-12-18T00:16:09.436Z,56.88
2022-12-18T00:19:03.170Z,52.42
2022-12-18T00:21:50.370Z,62.30
2022-12-18T00:24:37.774Z,53.50
2022-12-18T00:27:25.076Z,52.97
2022-12-18T00:30:14.516Z,55.33
2022-12-18T00:33:02.176Z,60.72
2022-12-18T00:35:49.702Z,48.33
2022-12-18T00:38:37.232Z,54.03
2022-12-18T00:41:43.047Z,52.13
2022-12-18T00:44:30.465Z,44.72
2022-12-18T00:47:19.214Z,50.90
2022-12-18T00:50:08.101Z,59.00
2022-12-18T00:52:56.039Z,56.75
2022-12-18T00:55:43.873Z,66.35
2022-12-18T00:58:31.932Z,54.15
2022-12-18T01:01:20.566Z,47.30
2022-12-18T01:04:09.731Z,61.67
2022-12-18T01:06:58.720Z,53.53
2022-12-18T01:09:46.534Z,49.13
2022-12-18T01:12:34.048Z,48.33
2022-12-18T01:15:22.672Z,56.92
2022-12-18T01:18:09.958Z,52.25
2022-12-18T01:20:59.104Z,61.10
2022-12-18T01:23:46.841Z,49.90
2022-12-18T01:26:34.644Z,53.60
2022-12-18T01:29:21.840Z,53.88
2022-12-18T01:32:09.802Z,42.88
2022-12-18T01:34:57.060Z,56.63
2022-12-18T01:37:45.857Z,48.65
2022-12-18T01:40:33.385Z,57.22
2022-12-18T01:43:20.911Z,55.53
2022-12-18T01:46:08.570Z,53.63
2022-12-18T01:48:59.308Z,53.67
2022-12-18T01:51:47.903Z,50.25
2022-12-18T01:54:37.000Z,51.42
2022-12-18T01:57:26.109Z,63.63
2022-12-18T02:00:16.434Z,57.55
2022-12-18T02:03:04.007Z,51.92
2022-12-18T02:06:01.922Z,47.40
2022-12-18T02:09:10.790Z,54.40
2022-12-18T02:12:04.478Z,60.47
2022-12-18T02:15:01.031Z,70.47
2022-12-18T02:17:54.558Z,49.80
2022-12-18T02:20:47.913Z,58.35
2022-12-18T02:23:49.164Z,59.85
2022-12-18T02:26:43.207Z,70.85
2022-12-18T02:29:34.959Z,68.57
2022-12-18T02:32:26.796Z,66.35
2022-12-18T02:35:17.624Z,61.95
2022-12-18T02:38:06.177Z,63.85
2022-12-18T02:40:56.932Z,51.38
2022-12-18T02:43:52.928Z,62.35
2022-12-18T02:46:44.724Z,65.75
2022-12-18T02:49:46.820Z,67.03
2022-12-18T02:52:41.385Z,77.95
2022-12-18T02:55:43.984Z,53.47
2022-12-18T02:58:44.950Z,63.97
2022-12-18T03:01:48.959Z,64.13
2022-12-18T03:04:42.027Z,45.78
2022-12-18T03:07:39.321Z,55.63
2022-12-18T03:10:33.142Z,50.65
2022-12-18T03:13:32.799Z,45.08
2022-12-18T03:16:25.930Z,46.58
2022-12-18T03:19:18.560Z,55.47
2022-12-18T03:22:09.343Z,45.85
2022-12-18T03:25:09.337Z,44.40
2022-12-18T03:28:01.763Z,46.38
2022-12-18T03:30:53.132Z,42.15
2022-12-18T03:33:44.481Z,53.58
2022-12-18T03:36:33.799Z,44.03
2022-12-18T03:39:22.825Z,50.55
2022-12-18T03:42:22.382Z,42.25
2022-12-18T03:45:17.730Z,38.30
2022-12-18T03:48:09.625Z,41.97
2022-12-18T03:51:04.667Z,37.00
2022-12-18T03:54:00.791Z,40.35
2022-12-18T03:57:01.928Z,39.08
2022-12-18T03:59:57.888Z,36.33
2022-12-18T04:02:57.907Z,34.20
2022-12-18T04:05:55.025Z,39.78
2022-12-18T04:08:44.018Z,40.70
2022-12-18T04:11:35.736Z,36.15
2022-12-18T04:14:24.700Z,44.72
2022-12-18T04:17:15.890Z,42.80
2022-12-18T04:20:03.326Z,37.25
2022-12-18T04:22:52.520Z,32.70
2022-12-18T04:25:41.355Z,29.90
2022-12-18T04:28:33.920Z,32.15
2022-12-18T04:31:21.530Z,31.27
2022-12-18T04:34:09.334Z,38.60
2022-12-18T04:37:03.045Z,34.08
2022-12-18T04:39:51.563Z,26.80
2022-12-18T04:42:48.068Z,39.13
2022-12-18T04:45:37.095Z,38.90
2022-12-18T04:48:24.551Z,36.30
2022-12-18T04:51:12.153Z,34.60
2022-12-18T04:54:00.185Z,30.73
2022-12-18T04:56:48.034Z,34.08
2022-12-18T04:59:35.502Z,28.40
2022-12-18T05:02:24.572Z,33.30
2022-12-18T05:05:12.302Z,32.55
2022-12-18T05:07:59.854Z,43.63
2022-12-18T05:10:47.918Z,33.60
2022-12-18T05:13:36.360Z,36.33
2022-12-18T05:16:24.121Z,34.22
2022-12-18T05:19:12.934Z,43.67
2022-12-18T05:22:01.133Z,36.65
2022-12-18T05:24:48.704Z,38.42
2022-12-18T05:27:36.158Z,37.22
2022-12-18T05:30:23.552Z,40.28
2022-12-18T05:33:10.926Z,35.70
2022-12-18T05:36:04.146Z,41.25
2022-12-18T05:38:51.806Z,30.92
2022-12-18T05:41:39.186Z,39.15
2022-12-18T05:44:26.765Z,43.08
2022-12-18T05:47:14.456Z,31.15
2022-12-18T05:50:01.750Z,33.00
2022-12-18T05:52:50.495Z,35.78
2022-12-18T05:55:38.723Z,40.42
2022-12-18T05:58:26.334Z,40.40
2022-12-18T06:01:15.895Z,33.17
2022-12-18T06:04:03.682Z,31.92
2022-12-18T06:06:51.855Z,47.88
2022-12-18T06:09:40.713Z,35.40
2022-12-18T06:12:28.349Z,36.42
2022-12-18T06:15:16.276Z,37.88
2022-12-18T06:18:04.731Z,33.17
2022-12-18T06:20:57.837Z,44.97
2022-12-18T06:23:45.714Z,33.88
2022-12-18T06:26:34.897Z,38.53
2022-12-18T06:29:22.312Z,37.47
2022-12-18T06:32:10.101Z,38.05
2022-12-18T06:34:57.790Z,32.67
2022-12-18T06:37:45.243Z,35.63
2022-12-18T06:40:33.417Z,35.63
2022-12-18T06:43:22.693Z,31.65
2022-12-18T06:46:11.765Z,32.58
2022-12-18T06:48:59.182Z,32.47
2022-12-18T06:51:46.818Z,30.30
2022-12-18T06:54:35.086Z,33.25
2022-12-18T06:57:22.768Z,35.28
2022-12-18T07:00:12.731Z,35.17
2022-12-18T07:03:00.477Z,35.00
2022-12-18T07:05:47.823Z,37.28
2022-12-18T07:08:37.537Z,40.22
2022-12-18T07:11:25.417Z,39.13
2022-12-18T07:14:13.053Z,39.92
2022-12-18T07:17:02.009Z,42.45
2022-12-18T07:19:49.377Z,33.35
2022-12-18T07:22:36.862Z,40.25
2022-12-18T07:25:24.509Z,43.47
2022-12-18T07:28:17.303Z,42.67
2022-12-18T07:31:05.722Z,44.03
2022-12-18T07:33:56.241Z,44.63
2022-12-18T07:36:44.281Z,53.80
2022-12-18T07:39:31.844Z,40.92
2022-12-18T07:42:34.651Z,40.63
2022-12-18T07:45:22.186Z,47.30
2022-12-18T07:48:10.106Z,50.53
2022-12-18T07:51:02.168Z,47.97
2022-12-18T07:53:51.995Z,50.60
2022-12-18T07:56:40.296Z,58.25
2022-12-18T07:59:27.782Z,53.92
2022-12-18T08:02:15.828Z,49.47
2022-12-18T08:05:03.674Z,43.85
2022-12-18T08:07:52.610Z,48.15
2022-12-18T08:10:40.650Z,56.92
2022-12-18T08:13:29.318Z,46.85
2022-12-18T08:16:17.173Z,47.88
2022-12-18T08:19:04.932Z,52.17
2022-12-18T08:21:52.291Z,51.45
2022-12-18T08:24:41.113Z,62.47
2022-12-18T08:27:29.886Z,55.65
2022-12-18T08:30:17.835Z,50.55
2022-12-18T08:33:05.755Z,57.65
2022-12-18T08:35:53.200Z,53.40
2022-12-18T08:38:41.056Z,51.88
2022-12-18T08:41:30.841Z,51.80
2022-12-18T08:44:35.751Z,46.95
2022-12-18T08:47:23.012Z,54.33
2022-12-18T08:50:13.011Z,57.35
2022-12-18T08:53:00.568Z,59.30
2022-12-18T08:55:50.398Z,54.63
2022-12-18T08:58:39.536Z,50.03
2022-12-18T09:01:27.444Z,55.65
2022-12-18T09:04:15.445Z,49.92
2022-12-18T09:07:02.849Z,47.50
2022-12-18T09:09:50.325Z,44.08
2022-12-18T09:12:37.688Z,41.97
2022-12-18T09:15:26.575Z,42.13
2022-12-18T09:18:15.471Z,42.05
2022-12-18T09:21:10.447Z,35.60
2022-12-18T09:23:58.421Z,42.17
2022-12-18T09:26:47.203Z,43.50
2022-12-18T09:29:35.311Z,50.70
2022-12-18T09:32:24.328Z,52.75
2022-12-18T09:35:11.925Z,44.70
2022-12-18T09:37:59.394Z,36.95
2022-12-18T09:40:50.699Z,45.25
2022-12-18T09:43:43.515Z,38.10
2022-12-18T09:46:36.303Z,43.08
2022-12-18T09:49:29.843Z,42.33
2022-12-18T09:52:21.724Z,37.67
2022-12-18T09:55:18.480Z,39.70
2022-12-18T09:58:16.499Z,36.42
2022-12-18T10:01:04.321Z,38.13
2022-12-18T10:03:53.542Z,39.22
2022-12-18T10:06:48.385Z,43.60
2022-12-18T10:09:42.841Z,35.70
2022-12-18T10:12:38.103Z,41.05
2022-12-18T10:15:30.571Z,35.50
2022-12-18T10:18:30.775Z,39.05
2022-12-18T10:21:22.945Z,39.50
2022-12-18T10:24:22.344Z,37.67
2022-12-18T10:27:16.646Z,37.58
2022-12-18T10:30:14.224Z,35.20
2022-12-18T10:33:03.682Z,38.67
2022-12-18T10:35:53.610Z,40.10
2022-12-18T10:38:41.695Z,38.22
2022-12-18T10:41:31.981Z,34.33
2022-12-18T10:44:21.695Z,37.83
2022-12-18T10:47:14.780Z,42.78
2022-12-18T10:50:03.259Z,34.42
2022-12-18T10:52:57.367Z,39.38
2022-12-18T10:55:48.428Z,33.92
2022-12-18T10:58:39.142Z,44.53
2022-12-18T11:01:26.720Z,33.70
2022-12-18T11:04:19.840Z,41.78
2022-12-18T11:07:09.543Z,40.15
2022-12-18T11:10:06.005Z,36.90
2022-12-18T11:12:54.133Z,39.10
2022-12-18T11:15:43.825Z,39.60
2022-12-18T11:18:34.127Z,54.97
2022-12-18T11:21:22.120Z,48.13
2022-12-18T11:24:21.403Z,38.20
2022-12-18T11:27:20.266Z,40.33
2022-12-18T11:30:17.842Z,38.28
2022-12-18T11:33:09.396Z,39.20
2022-12-18T11:36:03.774Z,36.47
2022-12-18T11:38:53.924Z,41.90
2022-12-18T11:42:05.941Z,40.83
2022-12-18T11:44:57.245Z,37.70
2022-12-18T11:47:52.147Z,49.03
2022-12-18T11:50:49.059Z,41.40
2022-12-18T11:53:39.143Z,44.30
2022-12-18T11:56:34.823Z,51.20
2022-12-18T11:59:33.113Z,45.70
2022-12-18T12:02:39.031Z,40.25
2022-12-18T12:05:42.893Z,46.83
2022-12-18T12:08:42.229Z,44.70
2022-12-18T12:11:39.068Z,45.85
2022-12-18T12:14:40.843Z,46.10
2022-12-18T12:17:39.427Z,52.45
2022-12-18T12:20:39.141Z,51.10
2022-12-18T12:23:38.966Z,50.80
2022-12-18T12:26:34.443Z,47.83
2022-12-18T12:29:37.178Z,43.38
2022-12-18T12:32:38.812Z,49.95
2022-12-18T12:35:37.605Z,54.67
2022-12-18T12:38:29.362Z,53.78
2022-12-18T12:41:40.050Z,53.78
2022-12-18T12:44:32.650Z,54.90
2022-12-18T12:47:25.082Z,47.05
2022-12-18T12:50:18.514Z,53.50
2022-12-18T12:53:12.557Z,50.63
2022-12-18T12:56:00.680Z,52.65
2022-12-18T12:58:59.568Z,54.08
2022-12-18T13:01:55.337Z,57.67
2022-12-18T13:04:50.858Z,51.95
2022-12-18T13:07:42.100Z,53.83
2022-12-18T13:10:38.841Z,58.78
2022-12-18T13:13:25.387Z,59.60
2022-12-18T13:16:20.036Z,63.47
2022-12-18T13:19:26.373Z,55.30
2022-12-18T13:22:25.067Z,62.72
2022-12-18T13:25:37.339Z,59.88
2022-12-18T13:28:40.484Z,59.78
2022-12-18T13:32:12.910Z,47.15
2022-12-18T13:35:42.794Z,53.97
2022-12-18T13:38:36.260Z,45.60
2022-12-18T13:41:26.831Z,50.10
2022-12-18T13:44:19.594Z,40.05
2022-12-18T13:47:07.815Z,48.78
2022-12-18T13:49:57.027Z,46.60
2022-12-18T13:52:46.153Z,44.67
2022-12-18T13:55:34.665Z,45.13
2022-12-18T13:58:22.039Z,50.17
2022-12-18T14:01:24.183Z,42.35
2022-12-18T14:04:13.745Z,50.53
2022-12-18T14:07:06.487Z,51.85
2022-12-18T14:10:12.034Z,50.60
2022-12-18T14:13:08.987Z,52.45
2022-12-18T14:15:58.652Z,62.00
2022-12-18T14:18:51.124Z,45.10
2022-12-18T14:21:40.097Z,56.72
2022-12-18T14:24:28.972Z,49.50
2022-12-18T14:27:31.814Z,51.85
2022-12-18T14:30:31.803Z,64.05
2022-12-18T14:33:21.791Z,62.78
2022-12-18T14:36:18.809Z,60.30
2022-12-18T14:39:06.131Z,55.90
2022-12-18T14:41:53.838Z,67.65
2022-12-18T14:45:05.075Z,61.03
2022-12-18T14:47:50.355Z,52.85
2022-12-18T14:50:37.909Z,68.28
2022-12-18T14:53:34.974Z,63.78
2022-12-18T14:56:24.435Z,64.07
2022-12-18T14:59:23.795Z,74.00
2022-12-18T15:02:21.566Z,76.07
2022-12-18T15:05:21.150Z,68.20
2022-12-18T15:08:36.446Z,80.15
2022-12-18T15:11:48.308Z,78.45
2022-12-18T15:14:40.729Z,64.82
2022-12-18T15:17:30.037Z,68.10
2022-12-18T15:20:17.589Z,64.82
2022-12-18T15:23:05.269Z,75.40
2022-12-18T15:25:58.568Z,63.03
2022-12-18T15:28:48.498Z,63.42
2022-12-18T15:31:36.979Z,68.30
2022-12-18T15:34:26.426Z,74.05
2022-12-18T15:37:13.988Z,71.57
2022-12-18T15:40:03.231Z,66.65
2022-12-18T15:43:10.614Z,69.50
2022-12-18T15:45:58.376Z,59.45
2022-12-18T15:48:47.568Z,62.50
2022-12-18T15:51:39.053Z,64.03
2022-12-18T15:54:40.267Z,64.30
2022-12-18T15:57:27.912Z,70.15
2022-12-18T16:00:16.434Z,69.75
2022-12-18T16:03:04.505Z,74.32
2022-12-18T16:05:52.465Z,77.68
2022-12-18T16:08:41.749Z,81.68
2022-12-18T16:11:45.279Z,71.95
2022-12-18T16:14:33.770Z,67.38
2022-12-18T16:17:21.331Z,67.40
2022-12-18T16:20:15.915Z,58.22
2022-12-18T16:23:03.398Z,80.88
2022-12-18T16:25:52.770Z,65.35
2022-12-18T16:28:45.195Z,74.65
2022-12-18T16:31:36.045Z,67.32
2022-12-18T16:34:28.643Z,72.72
2022-12-18T16:37:17.888Z,63.17
2022-12-18T16:40:06.794Z,70.47
2022-12-18T16:42:56.027Z,63.20
2022-12-18T16:45:43.480Z,84.43
2022-12-18T16:48:31.378Z,77.70
2022-12-18T16:51:19.157Z,65.55
2022-12-18T16:54:10.911Z,83.53
2022-12-18T16:57:03.240Z,83.35
2022-12-18T16:59:52.580Z,74.50
2022-12-18T17:02:40.993Z,73.22
2022-12-18T17:05:28.649Z,73.03
2022-12-18T17:08:17.325Z,81.93
2022-12-18T17:11:08.700Z,72.78
2022-12-18T17:13:56.634Z,66.70
2022-12-18T17:16:49.179Z,78.53
2022-12-18T17:19:41.807Z,81.53
2022-12-18T17:22:29.590Z,88.28
2022-12-18T17:25:17.335Z,81.95
2022-12-18T17:28:04.871Z,82.50
2022-12-18T17:30:54.508Z,89.55
2022-12-18T17:33:44.300Z,81.70
2022-12-18T17:36:32.500Z,87.03
2022-12-18T17:39:21.883Z,62.70
2022-12-18T17:42:10.658Z,65.28
2022-12-18T17:45:03.624Z,77.70
2022-12-18T17:47:54.226Z,68.07
2022-12-18T17:50:46.211Z,76.55
2022-12-18T17:53:34.753Z,74.88
2022-12-18T17:56:24.877Z,84.55
2022-12-18T17:59:13.264Z,90.82
2022-12-18T18:02:01.020Z,82.80
2022-12-18T18:04:48.812Z,84.88
2022-12-18T18:07:37.692Z,91.38
2022-12-18T18:10:26.065Z,100.28
2022-12-18T18:13:43.365Z,90.07
2022-12-18T18:16:36.793Z,105.00
2022-12-18T18:19:25.540Z,90.32
2022-12-18T18:22:13.245Z,87.45
2022-12-18T18:25:02.388Z,110.63
2022-12-18T18:27:50.025Z,101.35
2022-12-18T18:30:38.740Z,106.63
2022-12-18T18:33:26.426Z,103.47
2022-12-18T18:36:14.326Z,102.80
2022-12-18T18:39:02.221Z,122.63
2022-12-18T18:41:51.183Z,128.45
2022-12-18T18:44:38.881Z,115.78
2022-12-18T18:47:26.335Z,129.50
2022-12-18T18:50:14.192Z,113.50
2022-12-18T18:53:01.612Z,124.32
2022-12-18T18:56:04.017Z,108.45
2022-12-18T18:58:58.717Z,122.45
2022-12-18T19:01:46.886Z,113.93
2022-12-18T19:04:36.619Z,102.65
2022-12-18T19:07:32.835Z,127.65
2022-12-18T19:10:20.556Z,117.95
2022-12-18T19:13:21.999Z,116.43
2022-12-18T19:16:11.399Z,113.35
2022-12-18T19:19:01.876Z,122.80
2022-12-18T19:21:50.549Z,120.45
2022-12-18T19:24:38.226Z,122.85
2022-12-18T19:27:26.113Z,126.30
2022-12-18T19:30:14.234Z,128.82
2022-12-18T19:33:19.846Z,137.23
2022-12-18T19:36:16.569Z,143.73
2022-12-18T19:39:10.890Z,137.32
2022-12-18T19:41:58.468Z,117.20
2022-12-18T19:44:48.537Z,168.05
2022-12-18T19:47:36.179Z,166.55
2022-12-18T19:50:25.406Z,162.55
2022-12-18T19:53:13.427Z,151.00
2022-12-18T19:56:05.533Z,144.63
2022-12-18T19:58:53.043Z,131.48
2022-12-18T20:01:40.768Z,140.18
2022-12-18T20:04:28.848Z,125.72
2022-12-18T20:07:17.603Z,129.52
2022-12-18T20:10:09.136Z,145.20
2022-12-18T20:12:56.963Z,125.07
2022-12-18T20:15:45.801Z,137.63
2022-12-18T20:18:33.557Z,121.53
2022-12-18T20:21:21.151Z,133.80
2022-12-18T20:24:11.538Z,125.45
2022-12-18T20:26:59.281Z,133.25
2022-12-18T20:29:46.767Z,122.35
2022-12-18T20:32:37.260Z,121.70
2022-12-18T20:35:28.160Z,125.53
2022-12-18T20:38:16.734Z,127.40
2022-12-18T20:41:09.853Z,162.02
2022-12-18T20:43:57.521Z,131.55
2022-12-18T20:46:45.294Z,129.23
2022-12-18T20:49:33.195Z,131.23
2022-12-18T20:52:20.748Z,137.38
2022-12-18T20:55:11.263Z,109.65
2022-12-18T20:58:00.094Z,146.75
2022-12-18T21:00:47.789Z,112.10
2022-12-18T21:03:38.311Z,112.55
2022-12-18T21:06:26.533Z,139.30
2022-12-18T21:09:13.774Z,116.72
2022-12-18T21:12:18.666Z,126.82
2022-12-18T21:15:10.611Z,122.03
2022-12-18T21:17:58.011Z,123.43
2022-12-18T21:20:46.071Z,129.75
2022-12-18T21:23:36.385Z,123.32
2022-12-18T21:26:26.184Z,116.95
2022-12-18T21:29:15.404Z,122.90
2022-12-18T21:32:05.672Z,129.18
2022-12-18T21:34:53.157Z,134.40
2022-12-18T21:37:40.818Z,129.70
2022-12-18T21:40:28.305Z,137.38
2022-12-18T21:43:33.420Z,137.85
2022-12-18T21:46:20.851Z,146.13
2022-12-18T21:49:10.822Z,159.13
2022-12-18T21:52:00.252Z,128.90
2022-12-18T21:54:48.477Z,148.55
2022-12-18T21:57:35.927Z,129.88
2022-12-18T22:00:23.603Z,129.15
2022-12-18T22:03:18.313Z,149.30
2022-12-18T22:06:09.836Z,156.73
2022-12-18T22:08:57.699Z,143.80
2022-12-18T22:11:45.500Z,150.80
2022-12-18T22:14:33.258Z,145.55
2022-12-18T22:17:20.972Z,154.77
2022-12-18T22:20:11.113Z,135.10
2022-12-18T22:23:02.604Z,152.40
2022-12-18T22:25:53.907Z,133.98
2022-12-18T22:28:58.644Z,120.43
2022-12-18T22:31:46.209Z,128.18
2022-12-18T22:34:36.474Z,135.00
2022-12-18T22:37:24.233Z,124.15
2022-12-18T22:40:23.861Z,131.77
2022-12-18T22:43:12.476Z,145.68
2022-12-18T22:46:03.554Z,121.10
2022-12-18T22:48:51.795Z,131.48
2022-12-18T22:51:39.373Z,124.63
2022-12-18T22:54:27.107Z,133.32
2022-12-18T22:57:16.041Z,136.20
2022-12-18T23:00:04.310Z,120.15
2022-12-18T23:02:57.629Z,135.15
2022-12-18T23:05:48.444Z,123.22
2022-12-18T23:08:36.622Z,129.32
2022-12-18T23:11:24.842Z,129.70
2022-12-18T23:14:14.231Z,151.15
2022-12-18T23:17:02.162Z,146.35
2022-12-18T23:19:49.788Z,148.77
2022-12-18T23:22:37.390Z,138.57
2022-12-18T23:25:26.160Z,151.32
2022-12-18T23:28:14.348Z,132.57
2022-12-18T23:31:09.333Z,148.18
2022-12-18T23:33:58.971Z,157.10
2022-12-18T23:36:47.441Z,164.38
2022-12-18T23:39:35.984Z,152.30
2022-12-18T23:42:23.458Z,133.32
2022-12-18T23:45:18.097Z,158.40
2022-12-18T23:48:07.486Z,123.35
2022-12-18T23:50:55.165Z,142.93
2022-12-18T23:53:43.369Z,150.70
2022-12-18T23:56:31.728Z,117.68
2022-12-18T23:59:24.032Z,135.88
